Aviation Digital Data Service (ADDS)

Output produced by METARs form (2018 UTC 23 January 2019)
found at http://www.aviationweather.gov/metar/data/
 
Forecast for: UNTT (PLOTNIKOVO/TOMSK, RU)
Text: TAF UNTT 232000Z 2321/2406 18003MPS 3100 -SN BR BKN005 BKN015
Forecast period: 2100 UTC 23 January 2019 to 0600 UTC 24 January 2019
Forecast type: FROM: standard forecast or significant change
Winds: from the S (180 degrees) at 7 MPH (6 knots; 3.1 m/s)
Visibility: 1.93 miles (3.11 km)
Ceiling: 500 feet AGL
Clouds: broken clouds at 500 feet AGL
broken clouds at 1500 feet AGL
Weather: -SN BR  (light snow, mist)
Text: TEMPO 2321/2403 0500 FZFG SCT003 BKN011
Forecast period: 2100 UTC 23 January 2019 to 0300 UTC 24 January 2019
Forecast type: TEMPORARY: The following changes expected for less than half the time period
Visibility: 0.31 miles (0.50 km)
Ceiling: 1100 feet AGL
Clouds: scattered clouds at 300 feet AGL
broken clouds at 1100 feet AGL
Weather: FZFG  (freezing fog)